sensor_id;sensor_type;location;lat;lon;timestamp;temperature;humidity
40534;DHT22;26233;51.894;10.192;2023-03-16T00:02:10;4.00;44.10
40534;DHT22;26233;51.894;10.192;2023-03-16T00:04:38;4.00;44.10
40534;DHT22;26233;51.894;10.192;2023-03-16T00:07:06;4.00;44.20
40534;DHT22;26233;51.894;10.192;2023-03-16T00:09:35;4.00;44.20
40534;DHT22;26233;51.894;10.192;2023-03-16T00:12:07;4.00;44.20
40534;DHT22;26233;51.894;10.192;2023-03-16T00:14:40;4.10;44.20
40534;DHT22;26233;51.894;10.192;2023-03-16T00:17:08;4.00;44.10
40534;DHT22;26233;51.894;10.192;2023-03-16T00:19:44;4.00;44.10
40534;DHT22;26233;51.894;10.192;2023-03-16T00:22:13;4.00;44.00
40534;DHT22;26233;51.894;10.192;2023-03-16T00:24:42;4.00;44.00
40534;DHT22;26233;51.894;10.192;2023-03-16T00:27:10;4.00;44.10
40534;DHT22;26233;51.894;10.192;2023-03-16T00:29:40;3.90;44.00
40534;DHT22;26233;51.894;10.192;2023-03-16T00:32:13;3.90;44.00
40534;DHT22;26233;51.894;10.192;2023-03-16T00:34:42;3.80;43.90
40534;DHT22;26233;51.894;10.192;2023-03-16T00:37:10;3.90;44.00
40534;DHT22;26233;51.894;10.192;2023-03-16T00:39:40;3.80;44.00
40534;DHT22;26233;51.894;10.192;2023-03-16T00:42:09;3.80;44.00
40534;DHT22;26233;51.894;10.192;2023-03-16T00:44:37;3.80;44.10
40534;DHT22;26233;51.894;10.192;2023-03-16T00:47:05;3.80;44.10
40534;DHT22;26233;51.894;10.192;2023-03-16T00:49:32;3.70;44.00
40534;DHT22;26233;51.894;10.192;2023-03-16T00:51:59;3.80;44.10
40534;DHT22;26233;51.894;10.192;2023-03-16T00:54:30;3.80;44.10
40534;DHT22;26233;51.894;10.192;2023-03-16T00:57:00;3.80;44.00
40534;DHT22;26233;51.894;10.192;2023-03-16T00:59:28;3.80;44.00
40534;DHT22;26233;51.894;10.192;2023-03-16T01:01:55;3.80;44.00
40534;DHT22;26233;51.894;10.192;2023-03-16T01:04:22;3.80;44.00
40534;DHT22;26233;51.894;10.192;2023-03-16T01:06:50;3.80;44.00
40534;DHT22;26233;51.894;10.192;2023-03-16T01:09:17;3.80;44.00
40534;DHT22;26233;51.894;10.192;2023-03-16T01:11:45;3.80;43.90
40534;DHT22;26233;51.894;10.192;2023-03-16T01:14:15;3.80;43.90
40534;DHT22;26233;51.894;10.192;2023-03-16T01:16:42;3.80;44.00
40534;DHT22;26233;51.894;10.192;2023-03-16T01:19:10;3.80;44.00
40534;DHT22;26233;51.894;10.192;2023-03-16T01:21:38;3.80;44.60
40534;DHT22;26233;51.894;10.192;2023-03-16T01:24:05;3.80;43.90
40534;DHT22;26233;51.894;10.192;2023-03-16T01:26:34;3.80;43.90
40534;DHT22;26233;51.894;10.192;2023-03-16T01:29:03;3.80;43.80
40534;DHT22;26233;51.894;10.192;2023-03-16T01:31:32;3.80;43.90
40534;DHT22;26233;51.894;10.192;2023-03-16T01:33:59;3.80;43.90
40534;DHT22;26233;51.894;10.192;2023-03-16T01:36:27;3.80;43.90
40534;DHT22;26233;51.894;10.192;2023-03-16T01:38:54;3.80;43.80
40534;DHT22;26233;51.894;10.192;2023-03-16T01:41:21;3.80;43.90
40534;DHT22;26233;51.894;10.192;2023-03-16T01:43:48;3.80;43.80
40534;DHT22;26233;51.894;10.192;2023-03-16T01:46:20;3.80;43.80
40534;DHT22;26233;51.894;10.192;2023-03-16T01:49:00;3.80;43.80
40534;DHT22;26233;51.894;10.192;2023-03-16T01:51:35;3.80;43.70
40534;DHT22;26233;51.894;10.192;2023-03-16T01:54:13;3.80;43.90
40534;DHT22;26233;51.894;10.192;2023-03-16T01:56:47;3.90;43.90
40534;DHT22;26233;51.894;10.192;2023-03-16T01:59:23;3.80;43.70
40534;DHT22;26233;51.894;10.192;2023-03-16T02:01:54;3.90;43.80
40534;DHT22;26233;51.894;10.192;2023-03-16T02:04:33;3.90;43.80
40534;DHT22;26233;51.894;10.192;2023-03-16T02:07:06;4.00;43.80
40534;DHT22;26233;51.894;10.192;2023-03-16T02:09:35;4.00;43.80
40534;DHT22;26233;51.894;10.192;2023-03-16T02:12:04;4.00;43.80
40534;DHT22;26233;51.894;10.192;2023-03-16T02:14:32;4.00;43.80
40534;DHT22;26233;51.894;10.192;2023-03-16T02:16:59;4.00;43.70
40534;DHT22;26233;51.894;10.192;2023-03-16T02:19:35;4.10;43.80
40534;DHT22;26233;51.894;10.192;2023-03-16T02:22:08;4.00;43.50
40534;DHT22;26233;51.894;10.192;2023-03-16T02:24:36;4.00;43.50
40534;DHT22;26233;51.894;10.192;2023-03-16T02:27:06;4.00;43.70
40534;DHT22;26233;51.894;10.192;2023-03-16T02:30:00;4.10;44.30
40534;DHT22;26233;51.894;10.192;2023-03-16T02:32:30;4.20;43.40
40534;DHT22;26233;51.894;10.192;2023-03-16T02:34:58;4.10;43.80
40534;DHT22;26233;51.894;10.192;2023-03-16T02:37:27;4.10;43.70
40534;DHT22;26233;51.894;10.192;2023-03-16T02:39:58;4.10;43.70
40534;DHT22;26233;51.894;10.192;2023-03-16T02:42:26;4.20;43.80
40534;DHT22;26233;51.894;10.192;2023-03-16T02:44:56;4.20;43.70
40534;DHT22;26233;51.894;10.192;2023-03-16T02:47:29;4.20;43.60
40534;DHT22;26233;51.894;10.192;2023-03-16T02:49:59;4.20;43.60
40534;DHT22;26233;51.894;10.192;2023-03-16T02:52:31;4.30;43.70
40534;DHT22;26233;51.894;10.192;2023-03-16T02:54:58;4.20;43.60
40534;DHT22;26233;51.894;10.192;2023-03-16T02:57:25;4.30;43.50
40534;DHT22;26233;51.894;10.192;2023-03-16T02:59:53;4.30;43.30
40534;DHT22;26233;51.894;10.192;2023-03-16T03:02:20;4.30;43.60
40534;DHT22;26233;51.894;10.192;2023-03-16T03:04:50;4.40;43.60
40534;DHT22;26233;51.894;10.192;2023-03-16T03:07:20;4.40;43.40
40534;DHT22;26233;51.894;10.192;2023-03-16T03:09:56;4.40;43.30
40534;DHT22;26233;51.894;10.192;2023-03-16T03:12:23;4.40;43.40
40534;DHT22;26233;51.894;10.192;2023-03-16T03:14:50;4.40;43.50
40534;DHT22;26233;51.894;10.192;2023-03-16T03:17:17;4.40;43.40
40534;DHT22;26233;51.894;10.192;2023-03-16T03:19:44;4.40;43.80
40534;DHT22;26233;51.894;10.192;2023-03-16T03:22:15;4.40;43.40
40534;DHT22;26233;51.894;10.192;2023-03-16T03:24:43;4.50;43.40
40534;DHT22;26233;51.894;10.192;2023-03-16T03:27:10;4.40;43.40
40534;DHT22;26233;51.894;10.192;2023-03-16T03:29:39;4.40;43.30
40534;DHT22;26233;51.894;10.192;2023-03-16T03:32:07;4.40;43.40
40534;DHT22;26233;51.894;10.192;2023-03-16T03:34:40;4.40;43.20
40534;DHT22;26233;51.894;10.192;2023-03-16T03:37:08;4.40;43.20
40534;DHT22;26233;51.894;10.192;2023-03-16T03:39:36;4.40;43.20
40534;DHT22;26233;51.894;10.192;2023-03-16T03:42:05;4.40;43.20
40534;DHT22;26233;51.894;10.192;2023-03-16T03:44:33;4.40;43.20
40534;DHT22;26233;51.894;10.192;2023-03-16T03:47:00;4.40;43.20
40534;DHT22;26233;51.894;10.192;2023-03-16T03:49:27;4.40;43.40
40534;DHT22;26233;51.894;10.192;2023-03-16T03:51:55;4.50;44.00
40534;DHT22;26233;51.894;10.192;2023-03-16T03:54:23;4.40;43.20
40534;DHT22;26233;51.894;10.192;2023-03-16T03:56:52;4.40;43.20
40534;DHT22;26233;51.894;10.192;2023-03-16T03:59:20;4.40;43.30
40534;DHT22;26233;51.894;10.192;2023-03-16T04:01:47;4.50;43.40
40534;DHT22;26233;51.894;10.192;2023-03-16T04:04:14;4.50;43.00
40534;DHT22;26233;51.894;10.192;2023-03-16T04:06:43;4.50;43.20
40534;DHT22;26233;51.894;10.192;2023-03-16T04:09:10;4.50;43.20
40534;DHT22;26233;51.894;10.192;2023-03-16T04:11:37;4.50;43.10
40534;DHT22;26233;51.894;10.192;2023-03-16T04:14:06;4.60;43.10
40534;DHT22;26233;51.894;10.192;2023-03-16T04:16:33;4.50;43.20
40534;DHT22;26233;51.894;10.192;2023-03-16T04:19:00;4.60;43.20
40534;DHT22;26233;51.894;10.192;2023-03-16T04:21:27;4.60;43.30
40534;DHT22;26233;51.894;10.192;2023-03-16T04:23:54;4.60;43.20
40534;DHT22;26233;51.894;10.192;2023-03-16T04:26:21;4.60;43.20
40534;DHT22;26233;51.894;10.192;2023-03-16T04:28:50;4.60;43.10
40534;DHT22;26233;51.894;10.192;2023-03-16T04:31:19;4.60;43.10
40534;DHT22;26233;51.894;10.192;2023-03-16T04:33:47;4.60;43.10
40534;DHT22;26233;51.894;10.192;2023-03-16T04:36:14;4.60;43.30
40534;DHT22;26233;51.894;10.192;2023-03-16T04:38:41;4.60;43.30
40534;DHT22;26233;51.894;10.192;2023-03-16T04:41:08;4.60;43.20
40534;DHT22;26233;51.894;10.192;2023-03-16T04:43:36;4.60;43.20
40534;DHT22;26233;51.894;10.192;2023-03-16T04:46:05;4.70;43.20
40534;DHT22;26233;51.894;10.192;2023-03-16T04:48:35;4.70;43.30
40534;DHT22;26233;51.894;10.192;2023-03-16T04:51:03;4.70;43.20
40534;DHT22;26233;51.894;10.192;2023-03-16T04:53:31;4.70;43.30
40534;DHT22;26233;51.894;10.192;2023-03-16T04:55:59;4.70;43.20
40534;DHT22;26233;51.894;10.192;2023-03-16T04:58:27;4.70;43.20
40534;DHT22;26233;51.894;10.192;2023-03-16T05:00:54;4.80;43.40
40534;DHT22;26233;51.894;10.192;2023-03-16T05:03:21;4.70;43.20
40534;DHT22;26233;51.894;10.192;2023-03-16T05:05:50;4.80;43.20
40534;DHT22;26233;51.894;10.192;2023-03-16T05:08:17;4.80;43.20
40534;DHT22;26233;51.894;10.192;2023-03-16T05:10:44;4.80;43.30
40534;DHT22;26233;51.894;10.192;2023-03-16T05:13:12;4.80;43.00
40534;DHT22;26233;51.894;10.192;2023-03-16T05:15:39;4.80;43.10
40534;DHT22;26233;51.894;10.192;2023-03-16T05:18:07;4.80;43.10
40534;DHT22;26233;51.894;10.192;2023-03-16T05:20:34;4.80;43.10
40534;DHT22;26233;51.894;10.192;2023-03-16T05:23:02;4.70;42.90
40534;DHT22;26233;51.894;10.192;2023-03-16T05:25:29;4.80;43.20
40534;DHT22;26233;51.894;10.192;2023-03-16T05:27:56;4.70;43.00
40534;DHT22;26233;51.894;10.192;2023-03-16T05:30:23;4.70;43.00
40534;DHT22;26233;51.894;10.192;2023-03-16T05:32:51;4.70;43.00
40534;DHT22;26233;51.894;10.192;2023-03-16T05:35:19;4.70;43.00
40534;DHT22;26233;51.894;10.192;2023-03-16T05:37:46;4.70;43.10
40534;DHT22;26233;51.894;10.192;2023-03-16T05:40:16;4.70;43.20
40534;DHT22;26233;51.894;10.192;2023-03-16T05:42:44;4.70;43.60
40534;DHT22;26233;51.894;10.192;2023-03-16T05:45:12;4.80;43.20
40534;DHT22;26233;51.894;10.192;2023-03-16T05:47:41;4.70;42.90
40534;DHT22;26233;51.894;10.192;2023-03-16T05:50:14;4.80;43.20
40534;DHT22;26233;51.894;10.192;2023-03-16T05:52:42;4.70;42.90
40534;DHT22;26233;51.894;10.192;2023-03-16T05:55:11;4.70;43.00
40534;DHT22;26233;51.894;10.192;2023-03-16T05:57:40;4.80;43.10
40534;DHT22;26233;51.894;10.192;2023-03-16T06:00:10;4.90;42.80
40534;DHT22;26233;51.894;10.192;2023-03-16T06:02:41;4.80;43.60
40534;DHT22;26233;51.894;10.192;2023-03-16T06:05:09;4.80;43.10
40534;DHT22;26233;51.894;10.192;2023-03-16T06:07:36;4.60;42.70
40534;DHT22;26233;51.894;10.192;2023-03-16T06:10:05;4.80;42.80
40534;DHT22;26233;51.894;10.192;2023-03-16T06:12:33;4.90;43.10
40534;DHT22;26233;51.894;10.192;2023-03-16T06:15:02;4.90;43.50
40534;DHT22;26233;51.894;10.192;2023-03-16T06:17:31;4.90;42.70
40534;DHT22;26233;51.894;10.192;2023-03-16T06:19:59;4.90;43.00
40534;DHT22;26233;51.894;10.192;2023-03-16T06:22:31;5.00;43.20
40534;DHT22;26233;51.894;10.192;2023-03-16T06:24:58;5.00;43.00
40534;DHT22;26233;51.894;10.192;2023-03-16T06:27:25;5.10;43.20
40534;DHT22;26233;51.894;10.192;2023-03-16T06:29:53;5.20;43.50
40534;DHT22;26233;51.894;10.192;2023-03-16T06:32:21;5.30;43.60
40534;DHT22;26233;51.894;10.192;2023-03-16T06:34:48;5.50;43.80
40534;DHT22;26233;51.894;10.192;2023-03-16T06:37:18;5.60;44.40
40534;DHT22;26233;51.894;10.192;2023-03-16T06:39:46;5.80;43.70
40534;DHT22;26233;51.894;10.192;2023-03-16T06:42:13;6.00;44.10
40534;DHT22;26233;51.894;10.192;2023-03-16T06:44:40;6.20;44.20
40534;DHT22;26233;51.894;10.192;2023-03-16T06:47:08;6.30;44.20
40534;DHT22;26233;51.894;10.192;2023-03-16T06:49:36;6.50;44.30
40534;DHT22;26233;51.894;10.192;2023-03-16T06:52:04;6.70;44.40
40534;DHT22;26233;51.894;10.192;2023-03-16T06:54:31;6.90;44.30
40534;DHT22;26233;51.894;10.192;2023-03-16T06:56:59;7.10;44.20
40534;DHT22;26233;51.894;10.192;2023-03-16T06:59:27;7.20;44.40
40534;DHT22;26233;51.894;10.192;2023-03-16T07:01:54;7.50;44.60
40534;DHT22;26233;51.894;10.192;2023-03-16T07:04:21;7.60;43.60
40534;DHT22;26233;51.894;10.192;2023-03-16T07:06:49;7.70;43.00
40534;DHT22;26233;51.894;10.192;2023-03-16T07:09:16;7.80;43.60
40534;DHT22;26233;51.894;10.192;2023-03-16T07:11:43;7.90;43.40
40534;DHT22;26233;51.894;10.192;2023-03-16T07:14:10;8.00;43.30
40534;DHT22;26233;51.894;10.192;2023-03-16T07:16:37;8.00;43.20
40534;DHT22;26233;51.894;10.192;2023-03-16T07:19:04;8.10;42.50
40534;DHT22;26233;51.894;10.192;2023-03-16T07:21:31;8.20;43.00
40534;DHT22;26233;51.894;10.192;2023-03-16T07:24:07;8.30;43.40
40534;DHT22;26233;51.894;10.192;2023-03-16T07:26:35;8.50;44.20
40534;DHT22;26233;51.894;10.192;2023-03-16T07:29:03;8.80;44.40
40534;DHT22;26233;51.894;10.192;2023-03-16T07:31:31;9.10;45.30
40534;DHT22;26233;51.894;10.192;2023-03-16T07:33:58;9.40;44.30
40534;DHT22;26233;51.894;10.192;2023-03-16T07:36:28;9.70;44.40
40534;DHT22;26233;51.894;10.192;2023-03-16T07:38:55;9.90;44.60
40534;DHT22;26233;51.894;10.192;2023-03-16T07:41:24;10.20;43.50
40534;DHT22;26233;51.894;10.192;2023-03-16T07:43:51;10.30;42.40
40534;DHT22;26233;51.894;10.192;2023-03-16T07:46:21;10.30;41.70
40534;DHT22;26233;51.894;10.192;2023-03-16T07:48:48;10.30;40.90
40534;DHT22;26233;51.894;10.192;2023-03-16T07:51:15;10.10;40.90
40534;DHT22;26233;51.894;10.192;2023-03-16T07:53:45;10.00;40.80
40534;DHT22;26233;51.894;10.192;2023-03-16T07:56:12;9.80;41.20
40534;DHT22;26233;51.894;10.192;2023-03-16T07:58:41;9.70;40.80
40534;DHT22;26233;51.894;10.192;2023-03-16T08:01:08;9.50;41.10
40534;DHT22;26233;51.894;10.192;2023-03-16T08:03:36;9.50;41.30
40534;DHT22;26233;51.894;10.192;2023-03-16T08:06:03;9.30;41.30
40534;DHT22;26233;51.894;10.192;2023-03-16T08:08:31;9.30;41.00
40534;DHT22;26233;51.894;10.192;2023-03-16T08:10:58;9.20;41.60
40534;DHT22;26233;51.894;10.192;2023-03-16T08:13:25;9.20;41.80
40534;DHT22;26233;51.894;10.192;2023-03-16T08:15:54;9.20;42.00
40534;DHT22;26233;51.894;10.192;2023-03-16T08:18:23;9.20;42.30
40534;DHT22;26233;51.894;10.192;2023-03-16T08:20:51;9.20;42.20
40534;DHT22;26233;51.894;10.192;2023-03-16T08:23:22;9.20;41.80
40534;DHT22;26233;51.894;10.192;2023-03-16T08:25:51;9.20;41.50
40534;DHT22;26233;51.894;10.192;2023-03-16T08:28:19;9.20;41.70
40534;DHT22;26233;51.894;10.192;2023-03-16T08:30:48;9.10;41.90
40534;DHT22;26233;51.894;10.192;2023-03-16T08:33:19;9.20;42.00
40534;DHT22;26233;51.894;10.192;2023-03-16T08:35:46;9.20;42.00
40534;DHT22;26233;51.894;10.192;2023-03-16T08:38:14;9.20;42.00
40534;DHT22;26233;51.894;10.192;2023-03-16T08:40:42;9.30;41.80
40534;DHT22;26233;51.894;10.192;2023-03-16T08:43:13;9.30;42.10
40534;DHT22;26233;51.894;10.192;2023-03-16T08:45:41;9.40;42.10
40534;DHT22;26233;51.894;10.192;2023-03-16T08:48:10;9.40;41.90
40534;DHT22;26233;51.894;10.192;2023-03-16T08:50:40;9.50;41.60
40534;DHT22;26233;51.894;10.192;2023-03-16T08:53:12;9.50;41.80
40534;DHT22;26233;51.894;10.192;2023-03-16T08:55:40;9.60;41.80
40534;DHT22;26233;51.894;10.192;2023-03-16T08:58:08;9.70;41.30
40534;DHT22;26233;51.894;10.192;2023-03-16T09:00:37;9.70;41.60
40534;DHT22;26233;51.894;10.192;2023-03-16T09:03:06;9.80;41.90
40534;DHT22;26233;51.894;10.192;2023-03-16T09:05:34;9.90;41.90
40534;DHT22;26233;51.894;10.192;2023-03-16T09:08:03;10.10;41.60
40534;DHT22;26233;51.894;10.192;2023-03-16T09:10:30;10.40;41.80
40534;DHT22;26233;51.894;10.192;2023-03-16T09:12:58;10.90;42.90
40534;DHT22;26233;51.894;10.192;2023-03-16T09:15:25;11.30;43.70
40534;DHT22;26233;51.894;10.192;2023-03-16T09:17:53;11.90;43.90
40534;DHT22;26233;51.894;10.192;2023-03-16T09:20:22;12.40;44.70
40534;DHT22;26233;51.894;10.192;2023-03-16T09:22:49;13.10;45.20
40534;DHT22;26233;51.894;10.192;2023-03-16T09:25:19;13.60;43.70
40534;DHT22;26233;51.894;10.192;2023-03-16T09:27:46;14.00;43.50
40534;DHT22;26233;51.894;10.192;2023-03-16T09:30:15;14.30;41.60
40534;DHT22;26233;51.894;10.192;2023-03-16T09:32:43;14.40;41.30
40534;DHT22;26233;51.894;10.192;2023-03-16T09:35:13;14.50;40.20
40534;DHT22;26233;51.894;10.192;2023-03-16T09:37:40;14.60;41.10
40534;DHT22;26233;51.894;10.192;2023-03-16T09:40:19;14.80;41.00
40534;DHT22;26233;51.894;10.192;2023-03-16T09:42:55;14.90;40.40
40534;DHT22;26233;51.894;10.192;2023-03-16T09:45:38;15.10;40.90
40534;DHT22;26233;51.894;10.192;2023-03-16T09:48:08;15.40;41.50
40534;DHT22;26233;51.894;10.192;2023-03-16T09:50:39;15.70;41.30
40534;DHT22;26233;51.894;10.192;2023-03-16T09:53:15;15.90;40.10
40534;DHT22;26233;51.894;10.192;2023-03-16T09:58:52;16.10;39.00
40534;DHT22;26233;51.894;10.192;2023-03-16T10:05:08;16.10;38.30
40534;DHT22;26233;51.894;10.192;2023-03-16T10:07:44;16.30;39.50
40534;DHT22;26233;51.894;10.192;2023-03-16T10:10:29;16.40;39.40
40534;DHT22;26233;51.894;10.192;2023-03-16T10:13:15;16.60;38.70
40534;DHT22;26233;51.894;10.192;2023-03-16T10:15:56;16.70;38.60
40534;DHT22;26233;51.894;10.192;2023-03-16T10:18:28;16.80;39.40
40534;DHT22;26233;51.894;10.192;2023-03-16T10:20:59;16.90;38.50
40534;DHT22;26233;51.894;10.192;2023-03-16T10:23:33;16.90;37.70
40534;DHT22;26233;51.894;10.192;2023-03-16T10:26:10;16.80;37.30
40534;DHT22;26233;51.894;10.192;2023-03-16T10:28:41;16.80;37.40
40534;DHT22;26233;51.894;10.192;2023-03-16T10:31:10;16.70;37.80
40534;DHT22;26233;51.894;10.192;2023-03-16T10:33:40;16.70;37.50
40534;DHT22;26233;51.894;10.192;2023-03-16T10:36:17;16.70;38.30
40534;DHT22;26233;51.894;10.192;2023-03-16T10:38:52;16.70;36.60
40534;DHT22;26233;51.894;10.192;2023-03-16T10:41:22;16.80;38.50
40534;DHT22;26233;51.894;10.192;2023-03-16T10:43:56;16.80;38.60
40534;DHT22;26233;51.894;10.192;2023-03-16T10:46:26;17.00;37.80
40534;DHT22;26233;51.894;10.192;2023-03-16T10:48:55;17.10;38.60
40534;DHT22;26233;51.894;10.192;2023-03-16T10:51:26;17.20;38.30
40534;DHT22;26233;51.894;10.192;2023-03-16T10:54:02;17.30;37.90
40534;DHT22;26233;51.894;10.192;2023-03-16T10:56:35;17.40;38.10
40534;DHT22;26233;51.894;10.192;2023-03-16T10:59:14;17.40;37.80
40534;DHT22;26233;51.894;10.192;2023-03-16T11:01:44;17.50;35.80
40534;DHT22;26233;51.894;10.192;2023-03-16T11:04:17;17.50;36.50
40534;DHT22;26233;51.894;10.192;2023-03-16T11:06:51;17.50;37.80
40534;DHT22;26233;51.894;10.192;2023-03-16T11:09:22;17.60;37.40
40534;DHT22;26233;51.894;10.192;2023-03-16T11:11:51;17.70;37.50
40534;DHT22;26233;51.894;10.192;2023-03-16T11:14:22;17.80;37.40
40534;DHT22;26233;51.894;10.192;2023-03-16T11:16:58;17.90;37.30
40534;DHT22;26233;51.894;10.192;2023-03-16T11:19:29;18.00;36.90
40534;DHT22;26233;51.894;10.192;2023-03-16T11:22:01;18.10;37.10
40534;DHT22;26233;51.894;10.192;2023-03-16T11:24:36;18.10;35.90
40534;DHT22;26233;51.894;10.192;2023-03-16T11:27:16;18.00;35.60
40534;DHT22;26233;51.894;10.192;2023-03-16T11:29:58;17.90;35.80
40534;DHT22;26233;51.894;10.192;2023-03-16T11:32:33;17.90;35.50
40534;DHT22;26233;51.894;10.192;2023-03-16T11:35:12;17.70;36.20
40534;DHT22;26233;51.894;10.192;2023-03-16T11:37:55;17.50;33.70
40534;DHT22;26233;51.894;10.192;2023-03-16T11:40:42;17.30;35.20
40534;DHT22;26233;51.894;10.192;2023-03-16T11:43:40;17.10;35.50
40534;DHT22;26233;51.894;10.192;2023-03-16T11:46:18;17.00;34.50
40534;DHT22;26233;51.894;10.192;2023-03-16T11:48:52;16.80;35.40
40534;DHT22;26233;51.894;10.192;2023-03-16T11:51:34;16.60;34.70
40534;DHT22;26233;51.894;10.192;2023-03-16T11:54:16;16.50;34.40
40534;DHT22;26233;51.894;10.192;2023-03-16T11:56:57;16.40;35.10
40534;DHT22;26233;51.894;10.192;2023-03-16T11:59:40;16.40;36.00
40534;DHT22;26233;51.894;10.192;2023-03-16T12:02:43;16.50;36.20
40534;DHT22;26233;51.894;10.192;2023-03-16T12:05:44;16.50;35.00
40534;DHT22;26233;51.894;10.192;2023-03-16T12:08:23;16.50;35.50
40534;DHT22;26233;51.894;10.192;2023-03-16T12:10:59;16.50;35.00
40534;DHT22;26233;51.894;10.192;2023-03-16T12:14:02;16.50;35.30
40534;DHT22;26233;51.894;10.192;2023-03-16T12:16:42;16.40;33.10
40534;DHT22;26233;51.894;10.192;2023-03-16T12:19:16;16.50;35.30
40534;DHT22;26233;51.894;10.192;2023-03-16T12:21:56;16.50;35.40
40534;DHT22;26233;51.894;10.192;2023-03-16T12:24:30;16.50;35.20
40534;DHT22;26233;51.894;10.192;2023-03-16T12:27:01;16.40;34.60
40534;DHT22;26233;51.894;10.192;2023-03-16T12:29:33;16.40;34.80
40534;DHT22;26233;51.894;10.192;2023-03-16T12:32:08;16.40;35.20
40534;DHT22;26233;51.894;10.192;2023-03-16T12:34:43;16.30;34.70
40534;DHT22;26233;51.894;10.192;2023-03-16T12:37:26;16.30;34.20
40534;DHT22;26233;51.894;10.192;2023-03-16T12:40:24;16.20;33.50
40534;DHT22;26233;51.894;10.192;2023-03-16T12:43:17;16.10;34.00
40534;DHT22;26233;51.894;10.192;2023-03-16T12:45:58;16.10;33.00
40534;DHT22;26233;51.894;10.192;2023-03-16T12:48:32;16.00;34.30
40534;DHT22;26233;51.894;10.192;2023-03-16T12:51:04;15.90;33.90
40534;DHT22;26233;51.894;10.192;2023-03-16T12:53:42;15.70;33.70
40534;DHT22;26233;51.894;10.192;2023-03-16T12:56:12;15.60;33.50
40534;DHT22;26233;51.894;10.192;2023-03-16T12:58:43;15.40;33.00
40534;DHT22;26233;51.894;10.192;2023-03-16T13:01:15;15.10;33.30
40534;DHT22;26233;51.894;10.192;2023-03-16T13:03:46;14.90;33.30
40534;DHT22;26233;51.894;10.192;2023-03-16T13:06:19;14.70;33.30
40534;DHT22;26233;51.894;10.192;2023-03-16T13:08:52;14.60;32.80
40534;DHT22;26233;51.894;10.192;2023-03-16T13:11:25;14.40;33.20
40534;DHT22;26233;51.894;10.192;2023-03-16T13:14:05;14.30;33.70
40534;DHT22;26233;51.894;10.192;2023-03-16T13:16:37;14.20;33.00
40534;DHT22;26233;51.894;10.192;2023-03-16T13:19:25;14.00;33.30
40534;DHT22;26233;51.894;10.192;2023-03-16T13:22:03;13.90;32.20
40534;DHT22;26233;51.894;10.192;2023-03-16T13:24:37;13.80;32.60
40534;DHT22;26233;51.894;10.192;2023-03-16T13:27:17;13.60;32.70
40534;DHT22;26233;51.894;10.192;2023-03-16T13:29:56;13.50;32.80
40534;DHT22;26233;51.894;10.192;2023-03-16T13:32:26;13.30;32.10
40534;DHT22;26233;51.894;10.192;2023-03-16T13:34:58;13.10;32.70
40534;DHT22;26233;51.894;10.192;2023-03-16T13:37:28;13.00;32.60
40534;DHT22;26233;51.894;10.192;2023-03-16T13:40:02;12.80;32.40
40534;DHT22;26233;51.894;10.192;2023-03-16T13:42:31;12.70;32.80
40534;DHT22;26233;51.894;10.192;2023-03-16T13:45:10;12.60;32.80
40534;DHT22;26233;51.894;10.192;2023-03-16T13:47:41;12.60;32.50
40534;DHT22;26233;51.894;10.192;2023-03-16T13:50:11;12.50;33.20
40534;DHT22;26233;51.894;10.192;2023-03-16T13:52:41;12.50;33.40
40534;DHT22;26233;51.894;10.192;2023-03-16T13:55:14;12.40;33.00
40534;DHT22;26233;51.894;10.192;2023-03-16T13:57:43;12.30;33.00
40534;DHT22;26233;51.894;10.192;2023-03-16T14:00:15;12.30;32.80
40534;DHT22;26233;51.894;10.192;2023-03-16T14:02:45;12.20;32.60
40534;DHT22;26233;51.894;10.192;2023-03-16T14:05:18;12.20;33.10
40534;DHT22;26233;51.894;10.192;2023-03-16T14:07:54;12.30;33.20
40534;DHT22;26233;51.894;10.192;2023-03-16T14:10:23;12.40;33.70
40534;DHT22;26233;51.894;10.192;2023-03-16T14:12:53;12.60;34.20
40534;DHT22;26233;51.894;10.192;2023-03-16T14:15:24;12.70;34.00
40534;DHT22;26233;51.894;10.192;2023-03-16T14:17:52;12.80;33.90
40534;DHT22;26233;51.894;10.192;2023-03-16T14:20:31;12.90;33.90
40534;DHT22;26233;51.894;10.192;2023-03-16T14:23:00;13.00;33.90
40534;DHT22;26233;51.894;10.192;2023-03-16T14:25:27;13.00;33.70
40534;DHT22;26233;51.894;10.192;2023-03-16T14:27:59;13.10;33.40
40534;DHT22;26233;51.894;10.192;2023-03-16T14:30:29;13.10;33.30
40534;DHT22;26233;51.894;10.192;2023-03-16T14:32:58;13.10;33.70
40534;DHT22;26233;51.894;10.192;2023-03-16T14:35:27;13.10;33.60
40534;DHT22;26233;51.894;10.192;2023-03-16T14:37:55;13.00;33.20
40534;DHT22;26233;51.894;10.192;2023-03-16T14:40:26;13.00;33.10
40534;DHT22;26233;51.894;10.192;2023-03-16T14:42:56;12.90;33.30
40534;DHT22;26233;51.894;10.192;2023-03-16T14:45:30;12.80;33.20
40534;DHT22;26233;51.894;10.192;2023-03-16T14:48:03;12.80;32.90
40534;DHT22;26233;51.894;10.192;2023-03-16T14:50:31;12.70;32.80
40534;DHT22;26233;51.894;10.192;2023-03-16T14:52:59;12.70;33.10
40534;DHT22;26233;51.894;10.192;2023-03-16T14:55:30;12.70;33.00
40534;DHT22;26233;51.894;10.192;2023-03-16T14:57:57;12.60;32.60
40534;DHT22;26233;51.894;10.192;2023-03-16T15:00:24;12.50;32.80
40534;DHT22;26233;51.894;10.192;2023-03-16T15:02:58;12.50;32.70
40534;DHT22;26233;51.894;10.192;2023-03-16T15:05:32;12.40;32.70
40534;DHT22;26233;51.894;10.192;2023-03-16T15:08:01;12.40;33.00
40534;DHT22;26233;51.894;10.192;2023-03-16T15:10:32;12.50;33.20
40534;DHT22;26233;51.894;10.192;2023-03-16T15:13:12;12.50;33.20
40534;DHT22;26233;51.894;10.192;2023-03-16T15:15:48;12.50;32.60
40534;DHT22;26233;51.894;10.192;2023-03-16T15:18:15;12.50;33.00
40534;DHT22;26233;51.894;10.192;2023-03-16T15:20:43;12.50;32.70
40534;DHT22;26233;51.894;10.192;2023-03-16T15:23:16;12.50;32.70
40534;DHT22;26233;51.894;10.192;2023-03-16T15:25:45;12.50;33.00
40534;DHT22;26233;51.894;10.192;2023-03-16T15:28:15;12.50;32.50
40534;DHT22;26233;51.894;10.192;2023-03-16T15:30:45;12.40;32.30
40534;DHT22;26233;51.894;10.192;2023-03-16T15:33:13;12.40;32.70
40534;DHT22;26233;51.894;10.192;2023-03-16T15:35:41;12.40;32.70
40534;DHT22;26233;51.894;10.192;2023-03-16T15:38:13;12.30;32.10
40534;DHT22;26233;51.894;10.192;2023-03-16T15:40:41;12.30;32.20
40534;DHT22;26233;51.894;10.192;2023-03-16T15:43:12;12.20;32.20
40534;DHT22;26233;51.894;10.192;2023-03-16T15:45:41;12.10;31.90
40534;DHT22;26233;51.894;10.192;2023-03-16T15:48:09;12.10;31.80
40534;DHT22;26233;51.894;10.192;2023-03-16T15:50:38;12.00;31.80
40534;DHT22;26233;51.894;10.192;2023-03-16T15:53:13;11.90;31.20
40534;DHT22;26233;51.894;10.192;2023-03-16T15:55:43;11.80;31.50